createdAt,value
2019-03-06T00:25:21.513Z,90.00
2019-03-06T00:55:25.316Z,89.90
2019-03-06T01:25:29.035Z,90.70
2019-03-06T01:55:33.125Z,90.90
2019-03-06T02:25:36.859Z,91.60
2019-03-06T02:55:40.577Z,93.40
2019-03-06T03:25:44.294Z,93.90
2019-03-06T03:55:47.962Z,92.90
2019-03-06T04:25:51.646Z,95.00
2019-03-06T04:55:55.246Z,95.90
2019-03-06T05:25:58.931Z,97.00
2019-03-06T05:56:02.692Z,97.50
2019-03-06T06:26:06.362Z,95.40
2019-03-06T06:56:29.398Z,95.40
2019-03-06T07:26:34.637Z,93.10
2019-03-06T07:56:41.220Z,90.60
2019-03-06T08:26:45.147Z,84.30
2019-03-06T08:56:56.113Z,79.70
2019-03-06T09:27:01.342Z,74.80
2019-03-06T09:57:12.625Z,76.80
2019-03-06T10:27:16.291Z,58.40
2019-03-06T10:57:19.895Z,56.00
2019-03-06T11:27:23.654Z,56.50
2019-03-06T11:57:27.349Z,47.10
2019-03-06T12:27:31.003Z,58.10
2019-03-06T12:57:34.591Z,61.80
2019-03-06T13:27:38.347Z,48.30
2019-03-06T13:57:44.328Z,55.90
2019-03-06T14:27:48.065Z,50.20
2019-03-06T14:57:51.840Z,53.20
2019-03-06T15:27:55.582Z,57.80
2019-03-06T15:57:59.346Z,60.20
2019-03-06T16:28:04.331Z,65.00
2019-03-06T16:58:08.077Z,71.70
2019-03-06T17:28:11.932Z,76.40
2019-03-06T17:58:15.748Z,76.00
2019-03-06T18:28:19.511Z,77.10
2019-03-06T18:58:23.155Z,78.00
2019-03-06T19:28:26.829Z,77.80
2019-03-06T19:58:31.646Z,78.00
2019-03-06T20:28:35.356Z,76.80
2019-03-06T20:58:39.053Z,75.80
2019-03-06T21:28:42.682Z,75.30
2019-03-06T21:58:46.270Z,74.40
2019-03-06T22:28:50.083Z,75.00
2019-03-06T22:58:53.706Z,73.10
2019-03-06T23:28:57.293Z,74.50
2019-03-06T23:59:00.987Z,76.10
